WetterOnline ( http://www.wetteronline.de )

Wetter aktuell Stößen

Aktuelles Wetter: Leipzig/Halle (136m)

6-stündlich | Neueste Meldungen
Ortszeit Temperatur Wetter
Do, 21.02. 19:00 9.3° C bedeckt
Do, 21.02. 13:00 10.9° C leicht bewölkt
Do, 21.02. 7:00 5.1° C wolkig
Do, 21.02. 1:00 4.8° C leicht bewölkt
Mi, 20.02. 19:00 7.4° C bedeckt
Mi, 20.02. 13:00 9.5° C leicht bewölkt
Mi, 20.02. 7:00 3.7° C bewölkt
Mi, 20.02. 1:00 3.4° C leicht bewölkt
Ortszeit Temperatur Wetter
Do, 21.02. 19:00 9.3° C bedeckt
Do, 21.02. 18:50 9.3° C bedeckt
Do, 21.02. 18:40 9.2° C bedeckt
Do, 21.02. 18:30 9.0° C bedeckt
Do, 21.02. 18:20 9.0° C bedeckt
Do, 21.02. 18:10 9.1° C bedeckt
Do, 21.02. 18:00 8.9° C bedeckt, nach Regen
Do, 21.02. 17:30 8.5° C bewölkt
Do, 21.02. 17:00 10.2° C bedeckt
Do, 21.02. 16:30 10.5° C bedeckt
Do, 21.02. 16:00 10.8° C bewölkt
Ortszeit Relative Feuchte Sichtweite
Do, 21.02. 19:00 73% 20 km
Do, 21.02. 13:00 62% 23 km
Do, 21.02. 7:00 79% 18 km
Do, 21.02. 1:00 77% 30 km
Mi, 20.02. 19:00 66% 40 km
Mi, 20.02. 13:00 57% 40 km
Mi, 20.02. 7:00 81% 20 km
Mi, 20.02. 1:00 81% 25 km
Ortszeit Relative Feuchte Sichtweite
Do, 21.02. 19:00 73% 20 km
Do, 21.02. 18:50 73% -
Do, 21.02. 18:40 74% -
Do, 21.02. 18:30 75% -
Do, 21.02. 18:20 75% -
Do, 21.02. 18:10 75% -
Do, 21.02. 18:00 76% 25 km
Do, 21.02. 17:30 81% -
Do, 21.02. 17:00 64% 30 km
Do, 21.02. 16:30 62% -
Do, 21.02. 16:00 61% 35 km
Ortszeit Niederschlagsmenge Niederschlagsart
Do, 21.02. 19:00 0.2 l/m2 in 12 Std. Regen
Do, 21.02. 13:00 0.0 l/m2 in 6 Std. -
Do, 21.02. 7:00 0.0 l/m2 in 12 Std. -
Do, 21.02. 1:00 0.0 l/m2 in 6 Std. -
Mi, 20.02. 19:00 0.0 l/m2 in 12 Std. -
Mi, 20.02. 13:00 0.0 l/m2 in 6 Std. -
Mi, 20.02. 7:00 0.0 l/m2 in 12 Std. -
Mi, 20.02. 1:00 0.0 l/m2 in 6 Std. -
Ortszeit Niederschlagsmenge Niederschlagsart
Do, 21.02. 19:00 0.0 l/m2 in 1 Std. Regen
Do, 21.02. 18:50 keine Meldung -
Do, 21.02. 18:40 keine Meldung -
Do, 21.02. 18:30 0.0 l/m2 in 1 Std. -
Do, 21.02. 18:20 keine Meldung -
Do, 21.02. 18:10 keine Meldung -
Do, 21.02. 18:00 0.2 l/m2 in 1 Std. Regen
Do, 21.02. 17:30 0.2 l/m2 in 1 Std. -
Do, 21.02. 17:00 0.0 l/m2 in 1 Std. -
Do, 21.02. 16:30 0.0 l/m2 in 1 Std. -
Do, 21.02. 16:00 0.0 l/m2 in 1 Std. -
Ortszeit Stärke Spitze Richtung
km/h Bft. km/h Grad Sektor
Do, 21.02. 19:00 18 3 43 250° W
Do, 21.02. 13:00 28 4 37 250° W
Do, 21.02. 7:00 18 3 25 230° SW
Do, 21.02. 1:00 14 3 18 220° SW
Mi, 20.02. 19:00 14 3 43 230° SW
Mi, 20.02. 13:00 25 4 36 250° W
Mi, 20.02. 7:00 17 3 30 230° SW
Mi, 20.02. 1:00 14 3 32 220° SW
Ortszeit Stärke Spitze Richtung
km/h Bft. km/h Grad Sektor
Do, 21.02. 19:00 18 3 25 250° W
Do, 21.02. 18:50 18 3 - 250° W
Do, 21.02. 18:40 18 3 - 250° W
Do, 21.02. 18:30 19 3 26 250° W
Do, 21.02. 18:20 17 3 - 270° W
Do, 21.02. 18:10 18 3 - 260° W
Do, 21.02. 18:00 18 3 36 260° W
Do, 21.02. 17:30 15 3 35 260° W
Do, 21.02. 17:00 26 4 39 270° W
Do, 21.02. 16:30 25 4 36 260° W
Do, 21.02. 16:00 25 4 43 260° W
Ortszeit Untergrenze Bedeckung Gattung
total tief tief mittel hoch
Do, 21.02. 19:00 990 m 8/8 8/8 Sc - -
Do, 21.02. 13:00 3000 m 6/8 5/8 - Ac Ci
Do, 21.02. 7:00 1800 m 7/8 2/8 Sc As -
Do, 21.02. 1:00 3600 m 7/8 3/8 - As Ci
Mi, 20.02. 19:00 1500 m 8/8 2/8 Sc Ac -
Mi, 20.02. 13:00 900 m 7/8 1/8 Cu Ac Ci
Mi, 20.02. 7:00 1500 m 7/8 7/8 Sc - -
Mi, 20.02. 1:00 2100 m 3/8 3/8 Sc - -
Ortszeit Bedeckungsgrad in Achtel und Wolkenuntergrenze
Do, 21.02. 19:00 6(990m) 8(1800m)
Do, 21.02. 18:50 7(960m) 8(1500m)
Do, 21.02. 18:40 7(960m) 8(1500m)
Do, 21.02. 18:30 7(960m) 8(1500m)
Do, 21.02. 18:20 8(930m) 8(1500m)
Do, 21.02. 18:10 8(930m)
Do, 21.02. 18:00 7(1050m)
Do, 21.02. 17:30 7(1020m)
Do, 21.02. 17:00 7(1200m) 7(1500m) 8
Do, 21.02. 16:30 8(1200m)
Do, 21.02. 16:00 7(1200m) 7(3600m)
Ortszeit Luftdruck NN (hPa) Tendenz (hPa in 3 Std.)
Do, 21.02. 19:00 1025 + 0,6
Do, 21.02. 13:00 1025 - 0,9
Do, 21.02. 7:00 1025 - 0,1
Do, 21.02. 1:00 1026 + 0,4
Mi, 20.02. 19:00 1024 + 1,2
Mi, 20.02. 13:00 1023 + 0,4
Mi, 20.02. 7:00 1021 + 0,6
Mi, 20.02. 1:00 1020 + 0,8
Ortszeit Luftdruck NN (hPa) Tendenz (hPa in 3 Std.)
Do, 21.02. 19:00 1025 + 0,6
Do, 21.02. 18:50 1025 keine Meldung
Do, 21.02. 18:40 1025 keine Meldung
Do, 21.02. 18:30 1025 + 0,6
Do, 21.02. 18:20 1025 keine Meldung
Do, 21.02. 18:10 1025 keine Meldung
Do, 21.02. 18:00 1025 + 0,4
Do, 21.02. 17:30 1025 + 0,1
Do, 21.02. 17:00 1025 + 0,1
Do, 21.02. 16:30 1025 - 0,2
Do, 21.02. 16:00 1025 - 0,4
Ortszeit Schneehöhe (cm)
Do, 21.02. 19:00 0
Do, 21.02. 13:00 0
Do, 21.02. 7:00 0
Do, 21.02. 1:00 0
Mi, 20.02. 19:00 0
Mi, 20.02. 13:00 0
Mi, 20.02. 7:00 0
Mi, 20.02. 1:00 0
Ortszeit Schneehöhe (cm)
Do, 21.02. 19:00 0
Do, 21.02. 18:50 -
Do, 21.02. 18:40 -
Do, 21.02. 18:30 -
Do, 21.02. 18:20 -
Do, 21.02. 18:10 -
Do, 21.02. 18:00 -
Do, 21.02. 17:30 -
Do, 21.02. 17:00 -
Do, 21.02. 16:30 -
Do, 21.02. 16:00 -
Link zu dieser Seite / Seite empfehlen

Das Wetter in ...